Time;durP1;ratioP1;P1;durP2;ratioP2;P2;SDS_P1;SDS_P2;PMS_P1;PMS_P2;Temp;Humidity;BMP_temperature;BMP_pressure;BME280_temperature;BME280_humidity;BME280_pressure;Samples;Min_cycle;Max_cycle;Signal;HPM_P1;HPM_P2
2021/03/19 00:01:01;;;;;;;14.00;10.13;;;;;;;-2.83;100.00;100468.48;254202;1105;104376;-76
2021/03/19 00:06:02;;;;;;;16.45;10.13;;;;;;;-2.75;100.00;100466.84;254016;1105;104687;-77
2021/03/19 00:11:04;;;;;;;14.07;9.75;;;;;;;-2.82;100.00;100472.82;254271;1105;104341;-77
2021/03/19 00:16:06;;;;;;;13.70;9.35;;;;;;;-2.85;100.00;100461.48;253704;1105;104354;-76
2021/03/19 00:21:08;;;;;;;14.70;9.65;;;;;;;-3.03;100.00;100462.06;253553;1105;104335;-77
2021/03/19 00:26:09;;;;;;;15.30;9.85;;;;;;;-3.09;100.00;100448.05;253627;1105;104316;-76
2021/03/19 00:31:10;;;;;;;12.63;10.47;;;;;;;-3.20;100.00;100452.22;254336;1105;104328;-76
2021/03/19 00:36:11;;;;;;;17.57;12.17;;;;;;;-3.09;100.00;100447.19;254271;1105;104335;-76
2021/03/19 00:41:13;;;;;;;28.90;18.50;;;;;;;-2.98;100.00;100449.97;253654;1105;104274;-77
2021/03/19 00:46:14;;;;;;;25.80;17.40;;;;;;;-3.13;100.00;100448.86;253544;1104;105566;-76
2021/03/19 00:51:15;;;;;;;27.90;17.27;;;;;;;-3.15;100.00;100452.30;253611;1105;104341;-77
2021/03/19 00:56:17;;;;;;;25.63;16.27;;;;;;;-3.24;100.00;100445.18;253594;1105;104313;-77
2021/03/19 01:01:18;;;;;;;23.42;15.15;;;;;;;-3.08;100.00;100441.13;253983;1105;104284;-76
2021/03/19 01:06:19;;;;;;;22.10;14.70;;;;;;;-3.12;100.00;100445.41;253912;1104;104297;-76
2021/03/19 01:11:21;;;;;;;24.63;15.25;;;;;;;-3.32;100.00;100442.45;253739;1105;104650;-76
2021/03/19 01:16:23;;;;;;;21.03;13.43;;;;;;;-3.13;100.00;100442.75;253476;1105;104332;-76
2021/03/19 01:21:24;;;;;;;19.73;13.13;;;;;;;-3.02;100.00;100440.32;253546;1105;104701;-76
2021/03/19 01:26:25;;;;;;;18.42;11.48;;;;;;;-3.00;100.00;100433.41;253605;1105;104258;-76
2021/03/19 01:31:27;;;;;;;17.95;11.78;;;;;;;-3.07;100.00;100433.31;253709;1105;104634;-76
2021/03/19 01:36:28;;;;;;;17.55;11.90;;;;;;;-2.98;100.00;100429.10;253723;1105;104386;-76
2021/03/19 01:41:29;;;;;;;17.23;12.60;;;;;;;-3.00;100.00;100433.41;253581;1105;104332;-75
2021/03/19 01:47:09;;;;;;;17.32;11.75;;;;;;;-2.97;100.00;100428.25;253628;1105;104351;-75
2021/03/19 01:52:48;;;;;;;17.48;11.57;;;;;;;-2.85;100.00;100435.40;253639;1105;104319;-76
2021/03/19 01:58:26;;;;;;;15.67;11.00;;;;;;;-2.80;100.00;100431.13;253699;1105;104336;-75
2021/03/19 02:04:05;;;;;;;17.35;11.30;;;;;;;-2.96;100.00;100427.41;253692;1105;104386;-77
2021/03/19 02:09:44;;;;;;;19.12;13.00;;;;;;;-3.23;100.00;100431.30;253513;1105;104424;-76
2021/03/19 02:15:23;;;;;;;16.90;11.15;;;;;;;-3.29;100.00;100423.37;253592;1105;104453;-75
2021/03/19 02:21:02;;;;;;;15.65;11.12;;;;;;;-3.15;100.00;100429.70;253521;1105;104271;-78
2021/03/19 02:26:41;;;;;;;17.48;11.55;;;;;;;-3.43;100.00;100423.15;253541;1104;104303;-74
2021/03/19 02:31:47;;;;;;;17.48;11.10;;;;;;;-3.45;100.00;100420.49;253286;1105;119206;-77
2021/03/19 02:36:49;;;;;;;17.50;11.68;;;;;;;-3.38;100.00;100426.70;253230;1104;104406;-75
2021/03/19 02:41:50;;;;;;;16.37;12.43;;;;;;;-3.39;100.00;100422.34;253443;1105;104338;-76
2021/03/19 02:46:51;;;;;;;17.15;12.25;;;;;;;-3.52;100.00;100431.66;253648;1105;104335;-75
2021/03/19 02:51:54;;;;;;;17.95;11.83;;;;;;;-3.47;100.00;100426.53;253694;1105;104309;-75
2021/03/19 02:56:55;;;;;;;20.02;13.38;;;;;;;-3.43;100.00;100437.05;253786;1105;104296;-77
2021/03/19 03:01:56;;;;;;;18.60;12.43;;;;;;;-3.47;100.00;100437.86;253764;1105;104689;-75
2021/03/19 03:06:58;;;;;;;18.90;12.33;;;;;;;-3.39;100.00;100446.70;253728;1105;104335;-77
2021/03/19 03:12:01;;;;;;;19.02;11.88;;;;;;;-3.33;100.00;100451.12;253570;1105;104810;-77
2021/03/19 03:17:04;;;;;;;21.37;13.30;;;;;;;-3.30;100.00;100445.97;253776;1105;104450;-75
2021/03/19 03:22:05;;;;;;;17.80;12.55;;;;;;;-3.27;100.00;100446.00;253554;1105;104344;-76
2021/03/19 03:27:08;;;;;;;18.20;13.25;;;;;;;-3.36;100.00;100446.73;253483;1105;104258;-76
2021/03/19 03:32:09;;;;;;;16.95;11.93;;;;;;;-3.37;100.00;100449.33;253526;1105;104309;-77
2021/03/19 03:37:11;;;;;;;17.02;12.37;;;;;;;-3.26;100.00;100457.33;253504;1104;104527;-76
2021/03/19 03:42:12;;;;;;;19.00;13.05;;;;;;;-3.17;100.00;100452.25;253626;1105;104258;-75
2021/03/19 03:47:13;;;;;;;22.37;14.28;;;;;;;-3.10;100.00;100458.47;253525;1105;104255;-75
2021/03/19 03:52:14;;;;;;;20.17;13.22;;;;;;;-3.11;100.00;100452.39;253477;1105;104637;-76
2021/03/19 03:57:16;;;;;;;17.57;12.40;;;;;;;-3.14;100.00;100461.89;253563;1105;104338;-76
2021/03/19 04:02:25;;;;;;;19.52;12.45;;;;;;;-3.13;100.00;100456.69;253551;1105;104425;-76
2021/03/19 04:07:26;;;;;;;18.20;11.67;;;;;;;-3.08;100.00;100457.63;253642;1105;104319;-76
2021/03/19 04:12:27;;;;;;;21.55;13.85;;;;;;;-3.06;100.00;100460.26;253561;1105;104737;-76
2021/03/19 04:17:31;;;;;;;18.82;12.13;;;;;;;-3.02;100.00;100466.41;253556;1105;104715;-76
2021/03/19 04:22:33;;;;;;;18.80;12.45;;;;;;;-3.01;100.00;100462.95;253672;1105;104436;-77
2021/03/19 04:27:42;;;;;;;21.30;13.58;;;;;;;-2.99;100.00;100466.47;253584;1105;104284;-77
2021/03/19 04:32:43;;;;;;;20.02;13.30;;;;;;;-2.98;100.00;100470.84;253587;1105;104302;-76
2021/03/19 04:37:45;;;;;;;21.70;13.10;;;;;;;-2.98;100.00;100457.80;253347;1105;115147;-75
2021/03/19 04:42:47;;;;;;;22.20;13.43;;;;;;;-2.91;100.00;100465.73;253170;1105;114870;-76
2021/03/19 04:47:49;;;;;;;19.40;12.90;;;;;;;-2.87;100.00;100456.23;253407;1105;114945;-76
2021/03/19 04:52:51;;;;;;;20.50;13.40;;;;;;;-2.96;100.00;100461.31;253181;1105;115477;-75
2021/03/19 04:57:52;;;;;;;24.05;15.78;;;;;;;-2.92;100.00;100453.53;253629;1105;114984;-75
2021/03/19 05:02:54;;;;;;;20.55;14.30;;;;;;;-3.08;100.00;100456.77;253353;1105;115242;-74
2021/03/19 05:07:56;;;;;;;22.98;14.55;;;;;;;-2.98;100.00;100457.80;252876;1105;114982;-75
2021/03/19 05:12:58;;;;;;;22.23;14.67;;;;;;;-3.01;100.00;100463.84;253034;1106;115045;-75
2021/03/19 05:18:00;;;;;;;24.20;16.37;;;;;;;-3.11;100.00;100468.03;253881;1105;115050;-72
2021/03/19 05:23:01;;;;;;;19.73;13.60;;;;;;;-2.98;100.00;100474.31;252918;1106;115255;-75
2021/03/19 05:28:02;;;;;;;19.40;13.48;;;;;;;-2.89;100.00;100473.61;253009;1106;114953;-76
2021/03/19 05:33:04;;;;;;;17.92;13.45;;;;;;;-2.69;100.00;100470.43;253052;1106;116281;-75
2021/03/19 05:38:06;;;;;;;21.97;13.97;;;;;;;-2.69;100.00;100475.64;253264;1106;115432;-79
2021/03/19 05:43:23;;;;;;;23.60;16.20;;;;;;;-2.72;100.00;100479.95;253380;1106;115357;-75
2021/03/19 05:48:38;;;;;;;20.12;13.85;;;;;;;-2.69;100.00;100486.95;253969;1105;104456;-76
2021/03/19 05:53:41;;;;;;;;;;;;;;;-2.42;100.00;100483.89;253754;1105;104334;-76
2021/03/19 05:58:44;;;;;;;20.43;12.43;;;;;;;-2.57;100.00;100488.88;253619;1105;104377;-75
2021/03/19 06:03:46;;;;;;;25.35;17.30;;;;;;;-2.38;100.00;100489.13;253731;1105;104274;-76
2021/03/19 06:08:49;;;;;;;24.55;18.85;;;;;;;-2.27;100.00;100487.58;253516;1105;104371;-76
2021/03/19 06:14:01;;;;;;;29.30;21.25;;;;;;;-2.12;100.00;100490.40;253631;1105;104348;-75
2021/03/19 06:19:23;;;;;;;32.55;22.05;;;;;;;-1.94;100.00;100494.09;253555;1105;104319;-77
2021/03/19 06:24:27;;;;;;;30.10;19.37;;;;;;;-1.82;100.00;100493.38;253606;1105;104498;-76
2021/03/19 06:29:44;;;;;;;30.27;20.97;;;;;;;-1.79;100.00;100490.78;253542;1105;104729;-76
2021/03/19 06:35:04;;;;;;;30.12;20.10;;;;;;;-1.80;100.00;100489.92;253640;1105;104694;-75
2021/03/19 06:40:24;;;;;;;34.92;24.45;;;;;;;-1.77;100.00;100495.20;253530;1105;104374;-75
2021/03/19 06:45:26;;;;;;;31.35;21.50;;;;;;;-1.85;100.00;100494.22;253460;1105;104339;-76
2021/03/19 06:50:28;;;;;;;28.62;20.90;;;;;;;-1.80;100.00;100482.08;253465;1105;104245;-76
2021/03/19 06:55:36;;;;;;;28.25;19.80;;;;;;;-1.79;100.00;100491.67;253011;1105;104734;-75
2021/03/19 07:00:48;;;;;;;26.33;19.82;;;;;;;-1.67;100.00;100490.05;253512;1105;104331;-76
2021/03/19 07:06:05;;;;;;;25.10;18.73;;;;;;;-1.70;100.00;100490.04;253569;1105;104277;-75
2021/03/19 07:11:27;;;;;;;26.77;20.25;;;;;;;-1.58;100.00;100487.55;253541;1105;104637;-76
2021/03/19 07:17:12;;;;;;;28.05;21.50;;;;;;;-1.52;100.00;100491.98;253436;1105;105977;-76
2021/03/19 07:22:16;;;;;;;28.60;19.95;;;;;;;-1.38;100.00;100494.73;253474;1105;104349;-75
2021/03/19 07:27:26;;;;;;;35.43;23.17;;;;;;;-1.32;100.00;100494.79;253460;1105;104315;-75
2021/03/19 07:33:04;;;;;;;28.40;22.37;;;;;;;-1.21;100.00;100498.41;253440;1105;104392;-76
2021/03/19 07:38:44;;;;;;;30.87;23.10;;;;;;;-1.08;100.00;100501.14;253473;1105;119285;-75
2021/03/19 07:44:04;;;;;;;31.45;22.67;;;;;;;-1.02;100.00;100507.28;253483;1105;104323;-74
2021/03/19 07:49:18;;;;;;;26.05;18.45;;;;;;;-0.87;100.00;100509.19;253542;1105;104360;-75
2021/03/19 07:54:46;;;;;;;29.07;19.73;;;;;;;-0.79;100.00;100503.14;253499;1105;104309;-75
2021/03/19 08:00:14;;;;;;;25.85;18.60;;;;;;;-0.71;100.00;100509.31;253274;1106;104377;-77
2021/03/19 08:05:50;;;;;;;23.37;17.00;;;;;;;-0.56;100.00;100504.17;253350;1105;104332;-76
2021/03/19 08:11:10;;;;;;;24.65;17.82;;;;;;;-0.56;100.00;100504.17;253642;1105;104322;-76
2021/03/19 08:16:39;;;;;;;23.35;16.57;;;;;;;-0.42;100.00;100501.66;253497;1105;104337;-75
2021/03/19 08:21:50;;;;;;;21.30;15.63;;;;;;;-0.32;100.00;100507.84;253585;1105;104265;-75
2021/03/19 08:27:02;;;;;;;17.97;14.50;;;;;;;-0.35;100.00;100503.45;253148;1106;104338;-76
2021/03/19 08:32:42;;;;;;;23.42;17.20;;;;;;;-0.02;100.00;100503.65;253499;1105;104232;-75
2021/03/19 08:38:09;;;;;;;27.02;20.68;;;;;;;0.00;100.00;100509.78;253496;1106;104322;-77
2021/03/19 08:43:24;;;;;;;20.62;15.90;;;;;;;0.01;100.00;100500.16;253509;1105;105085;-75
2021/03/19 08:48:25;;;;;;;;;;;;;;;-0.08;100.00;100507.10;253523;1105;104350;-76
2021/03/19 08:53:26;;;;;;;24.60;17.60;;;;;;;-0.17;100.00;100502.70;253589;1105;104316;-76
2021/03/19 08:58:27;;;;;;;24.85;16.62;;;;;;;-0.07;100.00;100508.86;253473;1105;104332;-76
2021/03/19 09:03:41;;;;;;;21.33;15.80;;;;;;;-0.02;100.00;100501.03;253441;1106;104711;-76
2021/03/19 09:08:51;;;;;;;18.57;14.90;;;;;;;0.09;100.00;100499.32;253534;1105;104352;-78
2021/03/19 09:14:04;;;;;;;17.77;14.47;;;;;;;0.10;100.00;100495.84;253502;1105;104246;-75
2021/03/19 09:19:43;;;;;;;18.67;15.60;;;;;;;0.27;100.00;100503.77;253648;1105;104258;-76
2021/03/19 09:25:14;;;;;;;14.05;11.45;;;;;;;0.11;100.00;100497.59;253598;1106;104637;-76
2021/03/19 09:30:21;;;;;;;17.77;14.68;;;;;;;0.03;100.00;100501.92;253450;1106;104389;-78
2021/03/19 09:35:43;;;;;;;18.95;15.38;;;;;;;0.17;100.00;100498.48;253528;1106;104264;-77
2021/03/19 09:40:53;;;;;;;16.07;12.80;;;;;;;0.40;100.00;100504.70;253480;1108;111977;-77
2021/03/19 09:46:06;;;;;;;13.72;11.90;;;;;;;0.71;100.00;100494.27;253521;1106;104637;-76
2021/03/19 09:51:26;;;;;;;11.77;10.20;;;;;;;0.86;100.00;100500.42;253580;1105;119499;-75
2021/03/19 09:56:29;;;;;;;15.45;12.75;;;;;;;1.49;100.00;100496.94;253514;1106;104385;-73
2021/03/19 10:01:41;;;;;;;15.28;11.97;;;;;;;1.53;100.00;100496.08;253799;1105;104335;-76
2021/03/19 10:06:47;;;;;;;16.65;12.45;;;;;;;1.20;100.00;100498.72;253465;1105;105714;-75
2021/03/19 10:12:21;;;;;;;16.20;12.07;;;;;;;1.00;100.00;100503.08;253716;1106;104335;-76
2021/03/19 10:17:22;;;;;;;16.00;13.18;;;;;;;1.26;100.00;100482.95;253707;1105;104252;-76
2021/03/19 10:22:38;;;;;;;16.27;12.93;;;;;;;1.43;100.00;100496.08;253837;1106;104334;-78
2021/03/19 10:27:54;;;;;;;15.75;12.82;;;;;;;1.64;100.00;100499.55;253810;1106;104389;-77
2021/03/19 10:33:03;;;;;;;19.50;15.20;;;;;;;1.61;100.00;100499.57;253598;1105;104280;-77
2021/03/19 10:38:43;;;;;;;14.65;11.60;;;;;;;1.90;100.00;100501.27;253566;1105;104315;-79
2021/03/19 10:44:03;;;;;;;11.18;9.98;;;;;;;1.94;98.66;100503.00;253317;1106;104242;-77
2021/03/19 10:49:16;;;;;;;13.15;11.45;;;;;;;2.18;98.68;100498.55;253499;1105;104405;-77
2021/03/19 10:54:29;;;;;;;13.60;12.03;;;;;;;2.36;98.87;100498.45;253548;1105;104259;-77
2021/03/19 10:59:34;;;;;;;15.00;11.50;;;;;;;2.89;99.27;100494.65;253569;1105;104309;-79
2021/03/19 11:04:40;;;;;;;12.25;10.75;;;;;;;3.24;96.67;100491.77;254091;1106;104274;-77
2021/03/19 11:10:04;;;;;;;12.40;10.40;;;;;;;2.79;92.39;100496.47;254047;1105;104310;-77
2021/03/19 11:15:12;;;;;;;18.30;13.35;;;;;;;2.82;88.17;100488.57;254329;1105;104360;-76
2021/03/19 11:20:16;;;;;;;10.05;8.93;;;;;;;3.45;86.52;100488.06;253996;1105;104296;-78
2021/03/19 11:25:48;;;;;;;10.25;9.20;;;;;;;2.74;88.42;100487.73;253692;1105;104693;-77
2021/03/19 11:30:49;;;;;;;9.77;8.67;;;;;;;2.68;90.18;100486.87;254065;1105;104342;-78
2021/03/19 11:36:13;;;;;;;10.82;9.18;;;;;;;3.88;89.58;100488.52;254193;1106;104604;-75
2021/03/19 11:41:42;;;;;;;11.40;8.45;;;;;;;2.78;88.50;100489.45;254395;1105;104694;-77
2021/03/19 11:46:44;;;;;;;11.85;7.45;;;;;;;2.30;91.15;100477.44;253929;1105;104635;-76
2021/03/19 11:51:45;;;;;;;9.30;7.60;;;;;;;2.12;92.87;100470.50;254205;1106;104271;-77
2021/03/19 11:56:46;;;;;;;10.98;8.00;;;;;;;2.07;92.13;100475.78;253766;1106;104338;-76
2021/03/19 12:01:47;;;;;;;10.20;7.97;;;;;;;2.06;92.67;100476.66;253690;1105;104264;-75
2021/03/19 12:06:51;;;;;;;10.48;8.08;;;;;;;2.08;90.31;100476.64;253593;1105;104412;-76
2021/03/19 12:11:52;;;;;;;6.67;5.42;;;;;;;2.09;84.51;100480.16;253922;1105;104376;-76
2021/03/19 12:16:54;;;;;;;6.33;5.72;;;;;;;2.10;82.90;100484.55;253797;1105;105362;-77
2021/03/19 12:21:55;;;;;;;9.48;8.13;;;;;;;2.21;87.89;100480.11;253737;1106;104780;-77
2021/03/19 12:26:56;;;;;;;9.95;7.05;;;;;;;2.16;84.68;100484.52;253912;1105;104337;-77
2021/03/19 12:31:58;;;;;;;7.15;5.90;;;;;;;2.15;83.08;100475.73;253705;1105;104418;-76
2021/03/19 12:36:59;;;;;;;7.97;6.25;;;;;;;2.35;84.31;100480.92;254653;1105;104315;-76
2021/03/19 12:42:00;;;;;;;6.40;5.57;;;;;;;2.40;81.45;100475.64;254238;1105;104348;-78
2021/03/19 12:47:02;;;;;;;10.88;6.83;;;;;;;2.75;82.00;100471.06;253596;1105;104258;-77
2021/03/19 12:52:03;;;;;;;8.23;6.25;;;;;;;4.10;77.33;100463.64;253591;1106;104272;-79
2021/03/19 12:57:05;;;;;;;9.83;7.00;;;;;;;4.50;76.98;100456.98;253469;1105;104851;-77
2021/03/19 13:02:08;;;;;;;6.03;5.12;;;;;;;8.91;57.53;100454.03;253504;1105;104272;-78
2021/03/19 13:07:09;;;;;;;5.20;4.70;;;;;;;9.87;48.46;100437.46;253750;1105;104258;-76
2021/03/19 13:12:10;;;;;;;7.10;5.07;;;;;;;11.83;40.42;100434.09;253484;1105;104775;-77
2021/03/19 13:17:11;;;;;;;9.15;5.65;;;;;;;10.25;40.83;100434.33;253773;1105;104252;-77
2021/03/19 13:22:13;;;;;;;6.60;5.22;;;;;;;7.75;46.13;100423.78;253478;1105;104389;-76
2021/03/19 13:27:14;;;;;;;7.20;5.67;;;;;;;5.42;51.11;100422.91;253515;1105;104302;-76
2021/03/19 13:32:15;;;;;;;5.47;4.83;;;;;;;4.34;55.20;100419.34;253461;1105;104268;-77
2021/03/19 13:37:17;;;;;;;13.43;11.75;;;;;;;3.94;56.00;100431.31;253770;1106;104347;-77
2021/03/19 13:42:18;;;;;;;5.60;4.40;;;;;;;3.49;55.98;100429.14;253590;1105;104357;-75
2021/03/19 13:47:19;;;;;;;4.12;3.60;;;;;;;3.13;55.78;100435.64;253553;1106;104392;-78
2021/03/19 13:52:20;;;;;;;4.93;3.30;;;;;;;2.94;56.88;100435.81;253569;1105;104306;-78
2021/03/19 13:57:26;;;;;;;4.57;4.03;;;;;;;2.94;57.62;100440.19;253569;1105;104294;-76
2021/03/19 14:02:27;;;;;;;4.85;3.80;;;;;;;2.91;60.13;100432.33;253521;1105;104258;-77
2021/03/19 14:07:28;;;;;;;4.28;3.80;;;;;;;2.78;58.19;100431.53;253613;1106;104268;-80
2021/03/19 14:12:29;;;;;;;4.25;3.85;;;;;;;2.59;58.42;100443.94;253977;1106;104277;-76
2021/03/19 14:17:30;;;;;;;7.27;5.90;;;;;;;2.50;60.78;100436.98;253653;1105;104259;-77
2021/03/19 14:22:32;;;;;;;5.17;4.20;;;;;;;2.30;72.14;100444.98;253482;1105;104319;-78
2021/03/19 14:27:33;;;;;;;8.23;6.00;;;;;;;1.71;100.00;100463.63;253661;1105;104341;-75
2021/03/19 14:32:34;;;;;;;7.55;6.25;;;;;;;1.49;100.00;100462.78;253544;1105;104332;-76
2021/03/19 14:37:35;;;;;;;6.67;6.00;;;;;;;1.12;100.00;100463.70;253561;1105;104486;-78
2021/03/19 14:42:37;;;;;;;5.40;4.57;;;;;;;1.24;100.00;100462.83;253747;1105;104460;-78
2021/03/19 14:47:38;;;;;;;5.33;4.83;;;;;;;1.26;100.00;100479.47;252903;1105;248139;-77
2021/03/19 14:52:39;;;;;;;4.33;3.93;;;;;;;1.00;100.00;100480.31;253829;1109;104312;-77
2021/03/19 14:57:41;;;;;;;3.27;2.92;;;;;;;0.77;100.00;100478.56;253625;1108;104252;-77
2021/03/19 15:02:42;;;;;;;5.60;4.08;;;;;;;0.63;100.00;100491.64;253416;1109;104830;-77
2021/03/19 15:07:44;;;;;;;3.08;2.80;;;;;;;0.40;100.00;100488.97;253571;1109;104351;-76
2021/03/19 15:12:46;;;;;;;3.40;3.10;;;;;;;0.49;100.00;100500.36;253525;1108;104351;-77
2021/03/19 15:17:48;;;;;;;3.63;3.30;;;;;;;0.36;100.00;100497.67;253569;1108;104259;-76
2021/03/19 15:22:49;;;;;;;4.08;3.77;;;;;;;0.11;100.00;100496.70;253628;1108;104686;-77
2021/03/19 15:27:51;;;;;;;4.85;4.45;;;;;;;-0.05;100.00;100508.86;254404;1109;109153;-76
2021/03/19 15:32:53;;;;;;;5.87;5.37;;;;;;;0.05;100.00;100507.16;254913;1108;104252;-79
2021/03/19 15:37:58;;;;;;;6.40;5.80;;;;;;;0.05;100.00;100507.16;254482;1109;104281;-77
2021/03/19 15:42:59;;;;;;;;;;;;;;;0.08;100.00;100508.05;254408;1108;104823;-76
2021/03/19 15:48:01;;;;;;;6.05;5.45;;;;;;;0.13;100.00;100522.08;253612;1109;104397;-75
2021/03/19 15:53:03;;;;;;;5.40;4.90;;;;;;;0.23;100.00;100515.13;253939;1108;104351;-78
2021/03/19 15:58:05;;;;;;;7.65;6.95;;;;;;;0.44;100.00;100524.81;254162;1109;104259;-78
2021/03/19 16:03:06;;;;;;;7.53;6.25;;;;;;;0.46;100.00;100530.95;253405;1109;104392;-79
2021/03/19 16:08:11;;;;;;;7.40;6.00;;;;;;;0.45;100.00;100534.44;255015;1108;114514;-80
2021/03/19 16:13:13;;;;;;;5.77;5.27;;;;;;;0.49;100.00;100545.81;253670;1108;114618;-78
2021/03/19 16:18:20;;;;;;;9.95;7.58;;;;;;;0.44;100.00;100537.92;253357;1106;114484;-76
2021/03/19 16:23:21;;;;;;;8.58;6.53;;;;;;;0.31;100.00;100552.76;253000;1108;114800;-77
2021/03/19 16:28:25;;;;;;;7.37;5.70;;;;;;;0.18;100.00;100563.16;252975;1106;114517;-76
2021/03/19 16:33:27;;;;;;;6.67;5.87;;;;;;;0.12;100.00;100569.23;253051;1108;114752;-77
2021/03/19 16:38:33;;;;;;;6.75;5.58;;;;;;;0.13;100.00;100585.00;252976;1106;114556;-76
2021/03/19 16:43:36;;;;;;;4.28;3.87;;;;;;;0.11;100.00;100591.07;253421;1106;114362;-75
2021/03/19 16:48:38;;;;;;;4.92;4.40;;;;;;;0.03;100.00;100603.28;253889;1106;114631;-76
2021/03/19 16:53:39;;;;;;;5.45;4.65;;;;;;;0.08;100.00;100602.42;253085;1108;114564;-76
2021/03/19 16:58:46;;;;;;;4.75;4.22;;;;;;;-0.05;100.00;100605.83;253318;1108;114433;-76
2021/03/19 17:03:51;;;;;;;6.47;4.60;;;;;;;-0.12;100.00;100619.76;253093;1107;114611;-77
2021/03/19 17:08:55;;;;;;;7.37;5.50;;;;;;;-0.14;100.00;100626.75;253036;1108;115048;-76
2021/03/19 17:14:02;;;;;;;5.10;4.47;;;;;;;-0.27;100.00;100626.63;253200;1108;114686;-75
2021/03/19 17:19:10;;;;;;;9.85;7.00;;;;;;;-0.45;100.00;100634.34;252904;1109;114652;-76
2021/03/19 17:24:14;;;;;;;4.93;4.07;;;;;;;-0.66;100.00;100638.52;253181;1107;114765;-74
2021/03/19 17:29:19;;;;;;;5.80;3.80;;;;;;;-0.76;100.00;100641.89;253313;1107;115018;-77
2021/03/19 17:34:23;;;;;;;4.87;4.37;;;;;;;-0.80;100.00;100651.45;253007;1108;114855;-78
2021/03/19 17:39:27;;;;;;;6.00;4.97;;;;;;;-0.78;100.00;100659.34;253117;1109;114663;-77
2021/03/19 17:44:28;;;;;;;8.35;4.30;;;;;;;-0.80;100.00;100664.54;252957;1109;115799;-78
2021/03/19 17:49:30;;;;;;;7.92;5.42;;;;;;;-0.82;100.00;100675.00;253148;1106;114599;-77
2021/03/19 17:54:31;;;;;;;6.28;3.87;;;;;;;-1.00;100.00;100669.57;253562;1106;114910;-77
2021/03/19 17:59:32;;;;;;;7.53;4.00;;;;;;;-0.88;100.00;100680.17;253243;1107;114935;-76
2021/03/19 18:04:34;;;;;;;8.18;4.15;;;;;;;-1.03;100.00;100685.22;253509;1109;114957;-76
2021/03/19 18:09:35;;;;;;;6.27;4.57;;;;;;;-1.07;100.00;100688.67;253079;1108;114621;-77
2021/03/19 18:14:36;;;;;;;5.70;3.92;;;;;;;-1.02;100.00;100693.08;253178;1109;115002;-78
2021/03/19 18:19:42;;;;;;;4.12;3.67;;;;;;;-0.98;100.00;100696.61;253113;1108;114672;-76
2021/03/19 18:24:44;;;;;;;6.47;3.90;;;;;;;-1.03;100.00;100696.59;253257;1108;114674;-77
2021/03/19 18:29:46;;;;;;;5.20;4.10;;;;;;;-1.16;100.00;100706.01;253236;1109;114649;-77
2021/03/19 18:34:47;;;;;;;4.93;3.73;;;;;;;-1.22;100.00;100705.03;253213;1109;114680;-77
2021/03/19 18:39:48;;;;;;;6.67;4.35;;;;;;;-1.27;100.00;100710.23;253283;1108;114622;-77
2021/03/19 18:44:52;;;;;;;4.75;3.33;;;;;;;-1.30;100.00;100710.17;254346;1108;114784;-77
2021/03/19 18:49:53;;;;;;;6.28;4.33;;;;;;;-1.28;100.00;100713.70;254396;1109;114639;-77
2021/03/19 18:54:55;;;;;;;4.40;4.00;;;;;;;-1.34;100.00;100719.72;253608;1108;114639;-78
2021/03/19 18:59:57;;;;;;;6.05;4.42;;;;;;;-1.32;100.00;100719.73;253534;1107;114684;-73
2021/03/19 19:04:58;;;;;;;5.87;3.90;;;;;;;-1.31;100.00;100732.84;253982;1107;114735;-77
2021/03/19 19:10:00;;;;;;;7.15;4.67;;;;;;;-1.45;100.00;100735.25;253042;1108;115806;-76
2021/03/19 19:15:01;;;;;;;7.42;4.97;;;;;;;-1.51;100.00;100736.88;253140;1107;114820;-77
2021/03/19 19:20:10;;;;;;;5.55;4.05;;;;;;;-1.50;100.00;100739.55;253390;1106;114614;-76
2021/03/19 19:25:13;;;;;;;7.67;5.22;;;;;;;-1.48;100.00;100748.27;253280;1108;114567;-75
2021/03/19 19:30:16;;;;;;;4.60;3.52;;;;;;;-1.63;100.00;100740.22;253108;1109;114884;-76
2021/03/19 19:35:18;;;;;;;5.60;3.63;;;;;;;-1.66;100.00;100753.23;253124;1109;114902;-76
2021/03/19 19:40:22;;;;;;;5.25;3.72;;;;;;;-1.55;100.00;100749.03;252987;1109;115269;-75
2021/03/19 19:45:23;;;;;;;3.72;3.20;;;;;;;-1.69;100.00;100751.45;253087;1107;115039;-76
2021/03/19 19:50:34;;;;;;;4.40;3.30;;;;;;;-1.78;100.00;100762.64;253068;1107;114621;-76
2021/03/19 19:55:35;;;;;;;5.37;4.22;;;;;;;-1.69;100.00;100761.04;253065;1107;114711;-76
2021/03/19 20:00:37;;;;;;;4.87;3.33;;;;;;;-1.72;100.00;100771.43;253034;1108;114588;-75
2021/03/19 20:05:38;;;;;;;6.85;3.40;;;;;;;-1.80;100.00;100772.19;252999;1107;114992;-76
2021/03/19 20:10:40;;;;;;;5.58;3.15;;;;;;;-1.72;100.00;100777.52;253066;1108;114752;-76
2021/03/19 20:15:41;;;;;;;6.33;4.33;;;;;;;-1.70;100.00;100774.95;253122;1109;115102;-76
2021/03/19 20:20:42;;;;;;;7.28;4.50;;;;;;;-1.67;100.00;100770.66;253145;1107;115325;-75
2021/03/19 20:25:43;;;;;;;5.35;3.67;;;;;;;-1.71;100.00;100775.81;253009;1106;115799;-76
2021/03/19 20:30:45;;;;;;;4.92;3.50;;;;;;;-1.81;100.00;100778.27;252926;1107;114626;-75
2021/03/19 20:35:47;;;;;;;5.47;3.40;;;;;;;-1.87;100.00;100782.52;253052;1108;114710;-76
2021/03/19 20:40:49;;;;;;;5.92;3.50;;;;;;;-1.80;100.00;100785.25;253129;1108;114719;-75
2021/03/19 20:45:51;;;;;;;5.90;3.83;;;;;;;-1.91;100.00;100786.81;253112;1107;114760;-76
2021/03/19 20:51:00;;;;;;;4.50;3.40;;;;;;;-1.94;100.00;100786.75;253032;1107;114670;-76
2021/03/19 20:56:08;;;;;;;5.15;3.30;;;;;;;-1.85;100.00;100796.47;253108;1106;114980;-76
2021/03/19 21:01:14;;;;;;;8.03;4.42;;;;;;;-1.93;100.00;100793.73;253084;1108;114878;-76
2021/03/19 21:06:28;;;;;;;5.65;3.50;;;;;;;-1.90;100.00;100798.13;253130;1108;114810;-77
2021/03/19 21:11:29;;;;;;;4.22;3.20;;;;;;;-1.86;100.00;100798.22;253113;1107;114682;-76
2021/03/19 21:16:31;;;;;;;4.62;3.58;;;;;;;-1.86;100.00;100808.67;252893;1107;115010;-77
2021/03/19 21:21:33;;;;;;;5.53;3.40;;;;;;;-1.86;100.00;100806.06;253019;1107;115053;-77
2021/03/19 21:26:35;;;;;;;6.33;3.47;;;;;;;-1.84;100.00;100814.81;253112;1106;115125;-76
2021/03/19 21:31:37;;;;;;;6.75;4.15;;;;;;;-1.89;100.00;100812.97;253110;1106;114702;-77
2021/03/19 21:36:39;;;;;;;5.25;3.50;;;;;;;-2.06;100.00;100812.66;252956;1108;114629;-76
2021/03/19 21:41:41;;;;;;;4.20;2.95;;;;;;;-1.97;100.00;100815.42;253042;1109;114692;-77
2021/03/19 21:46:43;;;;;;;4.78;3.20;;;;;;;-1.98;100.00;100821.53;253053;1106;115829;-75
2021/03/19 21:51:44;;;;;;;4.40;3.37;;;;;;;-1.95;100.00;100816.34;253041;1108;114973;-76
2021/03/19 21:56:46;;;;;;;5.37;3.25;;;;;;;-1.96;100.00;100825.03;253098;1108;114644;-76
2021/03/19 22:01:47;;;;;;;4.00;2.75;;;;;;;-1.97;100.00;100826.77;253164;1108;115161;-75
2021/03/19 22:06:49;;;;;;;4.20;2.85;;;;;;;-2.06;100.00;100830.95;253221;1107;115791;-76
2021/03/19 22:11:51;;;;;;;3.43;2.70;;;;;;;-2.06;100.00;100833.56;253155;1109;114802;-74
2021/03/19 22:16:52;;;;;;;4.00;2.60;;;;;;;-2.19;100.00;100843.79;253513;1109;114927;-76
2021/03/19 22:21:54;;;;;;;6.57;2.93;;;;;;;-2.16;100.00;100843.83;253056;1107;114856;-75
2021/03/19 22:26:56;;;;;;;4.83;2.70;;;;;;;-2.12;100.00;100845.67;252994;1106;114632;-76
2021/03/19 22:31:59;;;;;;;5.70;2.97;;;;;;;-2.18;100.00;100845.52;253613;1109;114534;-76
2021/03/19 22:37:02;;;;;;;5.12;3.02;;;;;;;-2.20;100.00;100849.86;254326;1106;114800;-78
2021/03/19 22:42:04;;;;;;;3.90;2.33;;;;;;;-2.21;100.00;100849.80;254090;1109;104313;-75
2021/03/19 22:47:05;;;;;;;3.87;2.52;;;;;;;-2.22;100.00;100854.16;254401;1107;104274;-77
2021/03/19 22:52:06;;;;;;;2.75;2.40;;;;;;;-2.20;99.81;100862.92;253718;1109;104294;-77